This is the latest recevied weather packets stored in our database for station/object KC5DAQ-24. If no packets are shown the sender has not sent any weather packets the latest 1 day(s).
| Time | Temp. | Humidity | Pressure | Rain* | Wind** | Luminosity | Snow |
|---|---|---|---|---|---|---|---|
| 1777991523 | 25° C | 86% | 1007.9 hPa | 0 mm | 2.24 m/s, 0° | 139 W/m² | - |
| 1777991463 | 25° C | 86% | 1008 hPa | 0 mm | 2.24 m/s, 0° | 139 W/m² | - |
| 1777991405 | 25° C | 86% | 1008 hPa | 0 mm | 2.24 m/s, 0° | 139 W/m² | - |
| 1777991342 | 25° C | 86% | 1008 hPa | 0 mm | 1.34 m/s, 0° | 142 W/m² | - |
| 1777991283 | 25° C | 86% | 1008.1 hPa | 0 mm | 1.34 m/s, 0° | 151 W/m² | - |
| 1777991223 | 25° C | 86% | 1008 hPa | 0 mm | 1.79 m/s, 0° | 125 W/m² | - |
| 1777991164 | 25° C | 86% | 1007.9 hPa | 0 mm | 3.58 m/s, 0° | 176 W/m² | - |
| 1777991104 | 25° C | 86% | 1007.8 hPa | 0 mm | 3.13 m/s, 0° | 176 W/m² | - |
| 1777991044 | 25° C | 86% | 1007.7 hPa | 0 mm | 3.13 m/s, 0° | 176 W/m² | - |
| 1777990983 | 25° C | 86% | 1007.6 hPa | 0 mm | 3.13 m/s, 0° | 176 W/m² | - |
| 1777990923 | 25° C | 86% | 1007.7 hPa | 0 mm | 3.13 m/s, 0° | 176 W/m² | - |
| 1777990863 | 25° C | 86% | 1007.8 hPa | 0 mm | 3.13 m/s, 0° | 176 W/m² | - |
| 1777990803 | 25° C | 86% | 1007.8 hPa | 0 mm | 3.13 m/s, 0° | 176 W/m² | - |
| 1777990743 | 25° C | 86% | 1007.9 hPa | 0 mm | 3.13 m/s, 0° | 176 W/m² | - |
| 1777990683 | 25° C | 86% | 1007.8 hPa | 0 mm | 3.13 m/s, 0° | 176 W/m² | - |
| 1777990623 | 25° C | 86% | 1007.9 hPa | 0 mm | 3.13 m/s, 0° | 176 W/m² | - |
| 1777990563 | 25° C | 86% | 1007.9 hPa | 0 mm | 2.24 m/s, 0° | 216 W/m² | - |
| 1777990503 | 25° C | 86% | 1007.9 hPa | 0 mm | 2.24 m/s, 0° | 234 W/m² | - |
| 1777990442 | 25° C | 86% | 1007.8 hPa | 0 mm | 2.68 m/s, 0° | 234 W/m² | - |
| 1777990382 | 25° C | 87% | 1007.9 hPa | 0 mm | 2.24 m/s, 0° | 229 W/m² | - |
| 1777990324 | 25° C | 87% | 1007.9 hPa | 0 mm | 1.79 m/s, 0° | 229 W/m² | - |
| 1777990263 | 24.44° C | 87% | 1007.9 hPa | 0 mm | 1.79 m/s, 0° | 230 W/m² | - |
| 1777990202 | - | - | 1008 hPa | 0 mm | 1.79 m/s, 0° | - | - |
| 1777988188 | 23.89° C | 87% | 1008.2 hPa | 0 mm | 4.02 m/s, 0° | 134 W/m² | - |
| 1777988130 | 23.89° C | 87% | 1008.1 hPa | 0 mm | 4.02 m/s, 0° | 134 W/m² | - |
* Rain latest hour (hover to see other rain measurements)
** Current wind speed in m/s (hover to see current wind gust speed)